Time;durP1;ratioP1;P1;durP2;ratioP2;P2;SDS_P1;SDS_P2;PMS_P1;PMS_P2;Temp;Humidity;BMP_temperature;BMP_pressure;BME280_temperature;BME280_humidity;BME280_pressure;Samples;Min_cycle;Max_cycle;Signal;HPM_P1;HPM_P2
2024/01/15 00:00:17;;;;;;;6.20;1.48;;;0.80;99.90;;;;;;5033363;28;20430;-68
2024/01/15 00:02:43;;;;;;;5.03;2.13;;;0.80;99.90;;;;;;5031706;28;20128;-69
2024/01/15 00:05:09;;;;;;;16.13;2.08;;;0.80;99.90;;;;;;5033301;28;20044;-68
2024/01/15 00:07:35;;;;;;;8.27;1.83;;;0.80;99.90;;;;;;5012532;28;20072;-71
2024/01/15 00:10:01;;;;;;;7.65;1.40;;;0.80;99.90;;;;;;5038439;28;20102;-70
2024/01/15 00:12:27;;;;;;;12.43;3.00;;;0.70;99.90;;;;;;5048141;28;20055;-69
2024/01/15 00:14:54;;;;;;;11.40;1.52;;;0.70;99.90;;;;;;5032489;28;20037;-69
2024/01/15 00:17:19;;;;;;;12.15;2.30;;;0.80;99.90;;;;;;5033233;28;20055;-69
2024/01/15 00:19:45;;;;;;;10.15;1.77;;;0.70;99.90;;;;;;5015686;28;20041;-70
2024/01/15 00:22:10;;;;;;;20.58;2.90;;;0.70;99.90;;;;;;5031248;28;20445;-67
2024/01/15 00:24:36;;;;;;;9.20;1.30;;;0.80;99.90;;;;;;5036682;28;20400;-66
2024/01/15 00:27:02;;;;;;;12.48;1.60;;;0.90;99.90;;;;;;5035841;28;20041;-68
2024/01/15 00:29:27;;;;;;;5.97;1.20;;;0.90;99.90;;;;;;5031364;28;20049;-69
2024/01/15 00:31:53;;;;;;;5.32;1.30;;;1.00;99.90;;;;;;5049052;28;20053;-68
2024/01/15 00:34:19;;;;;;;7.82;1.38;;;1.00;99.90;;;;;;5040808;28;20060;-67
2024/01/15 00:36:44;;;;;;;6.97;1.20;;;1.00;99.90;;;;;;5039236;28;20041;-67
2024/01/15 00:39:10;;;;;;;5.15;1.73;;;1.10;99.90;;;;;;5034925;28;20037;-69
2024/01/15 00:41:36;;;;;;;9.55;1.90;;;1.10;1.00;;;;;;5028116;28;20061;-70
2024/01/15 00:44:02;;;;;;;6.30;1.30;;;1.10;1.00;;;;;;5030098;28;20445;-68
2024/01/15 00:46:28;;;;;;;6.53;1.02;;;1.20;1.00;;;;;;5032731;28;20509;-67
2024/01/15 00:48:54;;;;;;;4.97;0.60;;;1.20;1.00;;;;;;5028710;28;20041;-68
2024/01/15 00:51:20;;;;;;;6.07;0.90;;;1.30;1.00;;;;;;5030720;28;20045;-69
2024/01/15 00:53:45;;;;;;;12.95;1.05;;;1.20;1.00;;;;;;5037956;28;20041;-71
2024/01/15 00:56:11;;;;;;;5.75;1.27;;;1.10;1.00;;;;;;5029856;28;20322;-70
2024/01/15 00:58:36;;;;;;;11.25;1.63;;;1.10;1.00;;;;;;5030986;28;20373;-70
2024/01/15 01:01:02;;;;;;;9.98;1.67;;;1.10;1.00;;;;;;5041792;28;20115;-72
2024/01/15 01:03:28;;;;;;;10.43;1.02;;;0.90;1.00;;;;;;5028929;28;20075;-70
2024/01/15 01:05:53;;;;;;;9.38;1.58;;;1.00;1.00;;;;;;5037021;28;20136;-74
2024/01/15 01:08:19;;;;;;;8.68;1.90;;;1.00;1.00;;;;;;5035464;28;20041;-74
2024/01/15 01:10:45;;;;;;;10.48;1.27;;;1.00;1.00;;;;;;5038476;28;20049;-73
2024/01/15 01:13:10;;;;;;;11.70;1.70;;;0.80;1.00;;;;;;5032709;28;20083;-72
2024/01/15 01:15:36;;;;;;;6.63;1.10;;;0.70;14.20;;;;;;5029295;28;20386;-70
2024/01/15 01:18:02;;;;;;;7.93;1.40;;;0.70;50.60;;;;;;5010222;28;20156;-71
2024/01/15 01:20:28;;;;;;;10.75;1.60;;;0.70;72.80;;;;;;5025436;28;20241;-72
2024/01/15 01:22:53;;;;;;;7.93;1.38;;;0.70;79.50;;;;;;5023949;28;20040;-74
2024/01/15 01:25:19;;;;;;;14.55;1.88;;;0.80;85.90;;;;;;5030103;28;20079;-74
2024/01/15 01:27:44;;;;;;;11.32;1.58;;;0.80;95.40;;;;;;5035376;28;20052;-73
2024/01/15 01:30:10;;;;;;;9.57;1.40;;;0.80;99.40;;;;;;5009609;28;20091;-73
2024/01/15 01:32:36;;;;;;;6.82;1.42;;;0.80;99.90;;;;;;5038942;28;20424;-70
2024/01/15 01:35:01;;;;;;;12.45;1.38;;;0.80;99.90;;;;;;5033458;28;20037;-71
2024/01/15 01:37:27;;;;;;;8.93;2.00;;;0.80;99.90;;;;;;5029093;28;20738;-74
2024/01/15 01:39:53;;;;;;;8.52;1.80;;;0.80;99.90;;;;;;5031907;28;20042;-72
2024/01/15 01:42:18;;;;;;;11.35;1.75;;;0.80;99.90;;;;;;5039613;28;20052;-74
2024/01/15 01:44:44;;;;;;;10.02;1.90;;;0.80;99.90;;;;;;5033036;28;20775;-73
2024/01/15 01:47:10;;;;;;;7.68;1.60;;;0.80;99.90;;;;;;5034080;28;20041;-71
2024/01/15 01:49:37;;;;;;;11.75;1.40;;;0.90;99.90;;;;;;5036901;28;20049;-72
2024/01/15 01:52:05;;;;;;;10.48;1.70;;;0.90;99.90;;;;;;5042582;28;20042;-70
2024/01/15 01:54:32;;;;;;;5.35;1.33;;;0.90;99.90;;;;;;5039817;28;20033;-74
2024/01/15 01:56:58;;;;;;;9.80;1.50;;;0.90;99.90;;;;;;5043577;28;20037;-73
2024/01/15 01:59:26;;;;;;;6.07;1.35;;;1.00;99.90;;;;;;5043425;28;20056;-72
2024/01/15 02:01:56;;;;;;;7.35;1.40;;;0.90;99.90;;;;;;5047047;28;20167;-74
2024/01/15 02:04:25;;;;;;;5.07;1.27;;;0.90;99.90;;;;;;5036368;28;20033;-75
2024/01/15 02:06:51;;;;;;;14.35;1.30;;;0.90;99.90;;;;;;5031899;28;20055;-74
2024/01/15 02:09:20;;;;;;;5.07;1.05;;;0.90;99.90;;;;;;5037685;28;20041;-72
2024/01/15 02:11:49;;;;;;;12.50;1.48;;;0.90;99.90;;;;;;5035299;28;20045;-73
2024/01/15 02:14:15;;;;;;;11.50;1.60;;;0.90;99.90;;;;;;5038059;28;20082;-74
2024/01/15 02:16:41;;;;;;;11.80;1.20;;;1.00;99.90;;;;;;5036209;28;20045;-74
2024/01/15 02:19:06;;;;;;;6.70;1.45;;;0.90;99.90;;;;;;5018119;28;20049;-71
2024/01/15 02:21:32;;;;;;;7.25;1.58;;;0.90;99.90;;;;;;5043860;28;20053;-74
2024/01/15 02:23:58;;;;;;;11.40;1.30;;;0.90;99.90;;;;;;5036383;28;20106;-73
2024/01/15 02:26:24;;;;;;;4.53;0.90;;;0.90;99.90;;;;;;5032158;28;20136;-73
2024/01/15 02:28:51;;;;;;;4.15;1.30;;;0.90;99.90;;;;;;5030717;28;20045;-74
2024/01/15 02:31:17;;;;;;;5.88;0.73;;;0.80;99.90;;;;;;5031179;28;20135;-72
2024/01/15 02:33:43;;;;;;;6.07;0.80;;;0.90;99.90;;;;;;5017553;28;20079;-71
2024/01/15 02:36:10;;;;;;;8.07;1.20;;;0.90;99.90;;;;;;5027990;28;20033;-77
2024/01/15 02:38:35;;;;;;;5.78;0.88;;;0.90;99.90;;;;;;5018626;28;20044;-72
2024/01/15 02:41:01;;;;;;;3.47;0.65;;;0.90;99.90;;;;;;5033502;28;20397;-74
2024/01/15 02:43:27;;;;;;;3.08;0.88;;;0.80;99.90;;;;;;5032423;28;20041;-77
2024/01/15 02:45:52;;;;;;;5.90;1.08;;;0.90;99.90;;;;;;5036948;28;20037;-70
2024/01/15 02:48:18;;;;;;;7.20;1.10;;;0.90;99.90;;;;;;5030292;28;20446;-70
2024/01/15 02:50:43;;;;;;;4.70;1.40;;;0.90;99.90;;;;;;5031278;28;20034;-72
2024/01/15 02:53:09;;;;;;;5.47;2.30;;;0.90;99.90;;;;;;5037192;28;20041;-71
2024/01/15 02:55:35;;;;;;;7.05;1.20;;;0.90;99.90;;;;;;5030578;28;20065;-73
2024/01/15 02:58:00;;;;;;;9.68;1.75;;;1.10;99.90;;;;;;5029771;28;20037;-75
2024/01/15 03:00:26;;;;;;;8.68;1.40;;;1.00;99.90;;;;;;5038960;28;20056;-73
2024/01/15 03:02:51;;;;;;;7.05;1.63;;;1.10;99.90;;;;;;5033717;28;20037;-79
2024/01/15 03:05:17;;;;;;;4.18;1.13;;;1.20;99.90;;;;;;5043710;28;20091;-71
2024/01/15 03:07:43;;;;;;;7.75;1.42;;;1.20;99.90;;;;;;5049895;28;20043;-77
2024/01/15 03:10:09;;;;;;;10.38;2.33;;;1.20;99.90;;;;;;5050296;28;20039;-75
2024/01/15 03:12:34;;;;;;;6.03;1.70;;;1.20;99.90;;;;;;5051871;28;20052;-74
2024/01/15 03:15:00;;;;;;;10.15;1.50;;;1.10;99.90;;;;;;5046414;28;20099;-72
2024/01/15 03:17:26;;;;;;;11.55;1.58;;;1.10;99.90;;;;;;5034094;28;20742;-76
2024/01/15 03:19:51;;;;;;;17.63;2.92;;;1.10;99.90;;;;;;5034689;28;20253;-75
2024/01/15 03:22:17;;;;;;;15.15;3.35;;;1.10;99.90;;;;;;5040324;28;20037;-76
2024/01/15 03:24:43;;;;;;;11.35;2.13;;;1.00;99.90;;;;;;5037331;28;20103;-73
2024/01/15 03:27:09;;;;;;;9.38;1.30;;;1.10;99.90;;;;;;5025282;28;20052;-71
2024/01/15 03:29:35;;;;;;;9.70;1.75;;;1.10;99.90;;;;;;5040916;28;20452;-74
2024/01/15 03:32:00;;;;;;;12.95;1.48;;;1.20;99.90;;;;;;5030958;28;20077;-74
2024/01/15 03:34:26;;;;;;;8.82;2.10;;;1.10;99.90;;;;;;5029246;28;20092;-73
2024/01/15 03:36:52;;;;;;;9.98;1.70;;;1.20;99.90;;;;;;5014249;28;20096;-72
2024/01/15 03:39:17;;;;;;;7.25;1.38;;;1.20;99.90;;;;;;5042140;28;20037;-69
2024/01/15 03:41:43;;;;;;;10.23;1.67;;;1.10;99.90;;;;;;5022044;28;20049;-74
2024/01/15 03:44:08;;;;;;;9.93;1.60;;;1.00;99.90;;;;;;5031110;28;20171;-76
2024/01/15 03:46:34;;;;;;;7.47;1.50;;;1.00;99.90;;;;;;5030570;28;20047;-76
2024/01/15 03:49:00;;;;;;;13.18;1.65;;;1.10;99.90;;;;;;5018731;28;20037;-73
2024/01/15 03:51:25;;;;;;;10.73;2.20;;;1.10;99.90;;;;;;5044117;28;20527;-74
2024/01/15 03:53:51;;;;;;;14.10;1.60;;;1.10;99.90;;;;;;5039337;28;20064;-72
2024/01/15 03:56:17;;;;;;;7.55;1.52;;;1.20;99.90;;;;;;5029409;28;20056;-74
2024/01/15 03:58:42;;;;;;;11.70;2.17;;;1.20;99.90;;;;;;5042756;28;20041;-72
2024/01/15 04:01:09;;;;;;;12.43;1.60;;;1.20;99.90;;;;;;5045922;28;20032;-76
2024/01/15 04:03:35;;;;;;;11.68;1.98;;;1.10;99.90;;;;;;5038556;28;20040;-75
2024/01/15 04:06:01;;;;;;;12.60;2.65;;;1.10;99.90;;;;;;5016281;28;20048;-74
2024/01/15 04:08:26;;;;;;;15.73;1.88;;;1.10;99.90;;;;;;5029039;28;20042;-74
2024/01/15 04:10:52;;;;;;;13.38;2.50;;;1.10;99.90;;;;;;5028683;28;20049;-73
2024/01/15 04:13:18;;;;;;;14.77;2.17;;;1.00;99.90;;;;;;5029971;28;20077;-73
2024/01/15 04:15:43;;;;;;;16.48;2.35;;;1.10;99.90;;;;;;5029259;28;20033;-73
2024/01/15 04:18:09;;;;;;;10.10;1.60;;;1.10;99.90;;;;;;5044019;28;20106;-75
2024/01/15 04:20:34;;;;;;;10.38;1.50;;;1.20;99.90;;;;;;5030579;28;20056;-73
2024/01/15 04:23:00;;;;;;;12.93;1.35;;;1.20;99.90;;;;;;5016288;28;20048;-72
2024/01/15 04:25:26;;;;;;;14.45;2.88;;;1.20;99.90;;;;;;5043185;28;20037;-74
2024/01/15 04:27:51;;;;;;;9.13;1.40;;;1.30;99.90;;;;;;5039292;28;20180;-70
2024/01/15 04:30:17;;;;;;;11.43;1.83;;;1.30;99.90;;;;;;5045583;28;20033;-71
2024/01/15 04:32:42;;;;;;;10.10;1.38;;;1.30;99.90;;;;;;5028217;28;20045;-74
2024/01/15 04:35:08;;;;;;;8.23;1.17;;;1.30;99.90;;;;;;5028582;28;20038;-75
2024/01/15 04:37:34;;;;;;;15.20;2.25;;;1.20;99.90;;;;;;5035953;28;20034;-74
2024/01/15 04:39:59;;;;;;;11.98;1.60;;;1.30;99.90;;;;;;5028179;28;20037;-74
2024/01/15 04:42:25;;;;;;;9.15;1.20;;;1.30;99.90;;;;;;5037310;28;20064;-74
2024/01/15 04:44:51;;;;;;;10.93;2.20;;;1.30;99.90;;;;;;5015591;28;20084;-71
2024/01/15 04:47:16;;;;;;;10.25;1.70;;;1.10;99.90;;;;;;5028993;28;20140;-72
2024/01/15 04:49:42;;;;;;;9.02;1.50;;;1.10;99.90;;;;;;5024508;28;20053;-68
2024/01/15 04:52:10;;;;;;;9.93;1.67;;;1.10;99.90;;;;;;5029603;28;20095;-70
2024/01/15 04:54:36;;;;;;;7.47;1.88;;;1.00;99.90;;;;;;5011561;28;20144;-70
2024/01/15 04:57:02;;;;;;;6.35;1.23;;;0.90;99.90;;;;;;5014610;28;20394;-71
2024/01/15 04:59:28;;;;;;;5.82;1.33;;;0.90;99.90;;;;;;5037176;28;20094;-72
2024/01/15 05:01:54;;;;;;;4.13;1.17;;;0.80;99.90;;;;;;5043323;28;20049;-73
2024/01/15 05:04:20;;;;;;;8.27;2.25;;;0.80;99.90;;;;;;5028687;28;20038;-72
2024/01/15 05:06:46;;;;;;;7.75;0.95;;;0.80;99.90;;;;;;5030683;28;20040;-70
2024/01/15 05:09:13;;;;;;;4.22;0.82;;;0.70;99.90;;;;;;5038389;28;20041;-71
2024/01/15 05:11:39;;;;;;;6.25;0.77;;;0.70;99.90;;;;;;5028561;28;20073;-71
2024/01/15 05:14:05;;;;;;;6.85;1.10;;;0.70;99.90;;;;;;5033478;28;20060;-71
2024/01/15 05:16:30;;;;;;;8.48;1.13;;;0.70;99.90;;;;;;5013779;28;20033;-75
2024/01/15 05:18:56;;;;;;;6.15;1.02;;;0.70;99.90;;;;;;5028562;28;20381;-72
2024/01/15 05:21:22;;;;;;;5.00;1.10;;;0.70;99.90;;;;;;5029488;28;20139;-70
2024/01/15 05:23:47;;;;;;;3.78;1.30;;;0.60;99.90;;;;;;5044397;28;20029;-69
2024/01/15 05:26:13;;;;;;;4.78;0.90;;;0.60;99.90;;;;;;5023043;28;20413;-73
2024/01/15 05:28:40;;;;;;;3.58;0.82;;;0.60;99.90;;;;;;5039745;28;20053;-72
2024/01/15 05:31:06;;;;;;;5.00;0.80;;;0.50;99.90;;;;;;5034513;28;20049;-74
2024/01/15 05:33:31;;;;;;;4.00;0.90;;;0.50;99.90;;;;;;5028198;28;20752;-75
2024/01/15 05:35:58;;;;;;;8.20;1.60;;;0.60;99.90;;;;;;5044723;28;20049;-76
2024/01/15 05:38:24;;;;;;;6.93;1.27;;;0.50;99.90;;;;;;5044312;28;20089;-72
2024/01/15 05:40:49;;;;;;;5.35;0.77;;;0.60;99.90;;;;;;5034232;28;20037;-71
2024/01/15 05:43:15;;;;;;;4.97;0.75;;;0.60;99.90;;;;;;5046020;28;20041;-74
2024/01/15 05:45:43;;;;;;;3.20;1.02;;;0.60;99.90;;;;;;5041448;28;20037;-73
2024/01/15 05:48:08;;;;;;;8.48;1.25;;;0.70;99.90;;;;;;5041493;28;20042;-77
2024/01/15 05:50:34;;;;;;;4.13;0.77;;;0.70;99.90;;;;;;5027664;28;20053;-74
2024/01/15 05:53:00;;;;;;;8.90;1.42;;;0.70;99.90;;;;;;5025301;28;20045;-73
2024/01/15 05:55:26;;;;;;;4.55;1.10;;;0.80;99.90;;;;;;5020265;28;20477;-71
2024/01/15 05:57:51;;;;;;;12.30;1.42;;;0.80;99.90;;;;;;5041660;28;20075;-73
2024/01/15 06:00:17;;;;;;;5.38;1.00;;;0.80;99.90;;;;;;5032925;28;20113;-73
2024/01/15 06:02:43;;;;;;;6.10;1.30;;;0.80;99.90;;;;;;5015301;28;20041;-75
2024/01/15 06:05:08;;;;;;;6.72;1.30;;;0.80;99.90;;;;;;5027922;28;20468;-71
2024/01/15 06:07:35;;;;;;;3.78;1.27;;;0.80;99.90;;;;;;5028012;28;20103;-75
2024/01/15 06:10:01;;;;;;;9.40;1.65;;;0.80;99.90;;;;;;5035569;28;20057;-74
2024/01/15 06:12:28;;;;;;;11.13;2.00;;;0.80;99.90;;;;;;5036894;28;20797;-74
2024/01/15 06:14:53;;;;;;;13.15;2.35;;;0.80;99.90;;;;;;5030429;28;20037;-73
2024/01/15 06:17:19;;;;;;;2.88;1.10;;;0.70;99.90;;;;;;5045634;28;20040;-75
2024/01/15 06:19:44;;;;;;;7.63;1.23;;;0.70;99.90;;;;;;5028153;28;20029;-74
2024/01/15 06:22:10;;;;;;;5.63;0.93;;;0.70;99.90;;;;;;5048261;28;20453;-72
2024/01/15 06:24:36;;;;;;;8.52;1.10;;;0.60;99.90;;;;;;5021726;28;20040;-71
2024/01/15 06:27:01;;;;;;;5.47;1.10;;;0.60;99.90;;;;;;5050936;28;20040;-75
2024/01/15 06:29:28;;;;;;;7.78;1.08;;;0.60;99.90;;;;;;5042136;28;20063;-73
2024/01/15 06:31:53;;;;;;;9.32;1.40;;;0.60;99.90;;;;;;5031891;28;20480;-76
2024/01/15 06:34:19;;;;;;;6.72;1.08;;;0.70;99.90;;;;;;5031297;28;20047;-78
2024/01/15 06:36:45;;;;;;;8.57;1.33;;;0.80;99.90;;;;;;5040150;28;20132;-71
2024/01/15 06:39:11;;;;;;;8.20;1.58;;;0.90;99.90;;;;;;5029925;28;20531;-76
2024/01/15 06:41:43;;;;;;;7.32;1.38;;;0.90;99.90;;;;;;5032998;28;20037;-73
2024/01/15 06:44:10;;;;;;;9.73;1.30;;;0.90;99.90;;;;;;5022614;28;20143;-77
2024/01/15 06:46:36;;;;;;;4.05;1.15;;;0.80;99.90;;;;;;5034019;28;20415;-76
2024/01/15 06:49:02;;;;;;;4.40;1.30;;;0.80;99.90;;;;;;5031587;28;20251;-79
2024/01/15 06:51:27;;;;;;;6.72;1.08;;;0.80;99.90;;;;;;5037473;28;20048;-73
2024/01/15 06:53:53;;;;;;;7.72;1.13;;;0.90;99.90;;;;;;5028712;28;20044;-72
2024/01/15 06:56:19;;;;;;;5.47;1.40;;;0.90;99.90;;;;;;5039719;28;20077;-73
2024/01/15 06:58:45;;;;;;;7.45;1.67;;;0.80;99.90;;;;;;5017225;28;20039;-76
2024/01/15 07:01:10;;;;;;;7.57;1.40;;;0.80;99.90;;;;;;5033555;28;20117;-75
2024/01/15 07:03:36;;;;;;;6.50;1.60;;;0.80;99.90;;;;;;5031183;28;20045;-74
2024/01/15 07:06:02;;;;;;;10.25;1.73;;;0.70;99.90;;;;;;5040959;28;20044;-75
2024/01/15 07:08:27;;;;;;;5.47;1.42;;;0.70;99.90;;;;;;5029110;28;20045;-71
2024/01/15 07:10:53;;;;;;;9.23;2.78;;;0.70;99.90;;;;;;5014696;28;20049;-74
2024/01/15 07:13:18;;;;;;;9.75;2.78;;;0.70;99.90;;;;;;5030076;28;20049;-73
2024/01/15 07:15:44;;;;;;;10.30;1.83;;;0.70;99.90;;;;;;5030695;28;20041;-75
2024/01/15 07:18:10;;;;;;;8.75;2.70;;;0.70;99.90;;;;;;5036320;28;20374;-74
2024/01/15 07:20:35;;;;;;;12.38;2.28;;;0.70;99.90;;;;;;5034994;28;20065;-76
2024/01/15 07:23:02;;;;;;;10.98;1.80;;;0.60;99.90;;;;;;5039073;28;20146;-73
2024/01/15 07:25:27;;;;;;;10.25;1.77;;;0.60;99.90;;;;;;5038766;28;20045;-71
2024/01/15 07:27:53;;;;;;;8.75;1.70;;;0.60;99.90;;;;;;5031039;28;20044;-74
2024/01/15 07:30:19;;;;;;;10.48;2.00;;;0.60;99.90;;;;;;5032754;28;20057;-76
2024/01/15 07:32:45;;;;;;;8.02;1.48;;;0.60;99.90;;;;;;5039642;28;20461;-72
2024/01/15 07:35:10;;;;;;;15.85;2.80;;;0.60;99.90;;;;;;5030268;28;20030;-73
2024/01/15 07:37:36;;;;;;;10.07;2.03;;;0.70;99.90;;;;;;5039830;28;20060;-74
2024/01/15 07:40:04;;;;;;;7.43;1.65;;;0.60;99.90;;;;;;5021638;28;20493;-71
2024/01/15 07:42:29;;;;;;;8.98;1.88;;;0.60;99.90;;;;;;5033121;28;20052;-73
2024/01/15 07:44:55;;;;;;;10.27;1.50;;;0.60;99.90;;;;;;5034234;28;20037;-75
2024/01/15 07:47:21;;;;;;;12.07;1.73;;;0.60;99.90;;;;;;5033628;28;20045;-78
2024/01/15 07:49:46;;;;;;;13.82;1.73;;;0.60;99.90;;;;;;5036516;28;20064;-77
2024/01/15 07:52:13;;;;;;;9.13;1.98;;;0.60;99.90;;;;;;5013416;28;20445;-77
2024/01/15 07:54:39;;;;;;;10.45;1.75;;;0.50;99.90;;;;;;5031860;28;20167;-72
2024/01/15 07:57:04;;;;;;;10.48;1.85;;;0.50;99.90;;;;;;5030032;28;20030;-74
2024/01/15 07:59:30;;;;;;;12.85;1.77;;;0.50;99.90;;;;;;5030530;28;20048;-73
2024/01/15 08:01:56;;;;;;;11.57;1.60;;;0.60;99.90;;;;;;5027745;28;20037;-73
2024/01/15 08:04:22;;;;;;;14.90;1.52;;;0.50;99.90;;;;;;5029178;28;20057;-75
2024/01/15 08:06:47;;;;;;;14.23;2.08;;;0.60;99.90;;;;;;5015429;28;20473;-72
2024/01/15 08:09:13;;;;;;;9.07;1.90;;;0.60;99.90;;;;;;5032591;28;20555;-74
2024/01/15 08:11:43;;;;;;;8.23;1.92;;;0.70;99.90;;;;;;5023999;28;20060;-76
2024/01/15 08:14:09;;;;;;;11.25;2.30;;;0.80;99.90;;;;;;5030381;28;20044;-77
2024/01/15 08:16:36;;;;;;;9.07;2.03;;;0.90;99.90;;;;;;5021483;28;20124;-72
2024/01/15 08:19:02;;;;;;;7.38;1.70;;;0.90;99.90;;;;;;5042390;28;20500;-72
2024/01/15 08:21:29;;;;;;;13.75;2.03;;;1.00;99.90;;;;;;5047058;28;20041;-73
2024/01/15 08:23:56;;;;;;;7.53;1.42;;;1.00;99.90;;;;;;5020487;28;20041;-71
2024/01/15 08:26:22;;;;;;;8.00;1.40;;;1.00;99.90;;;;;;5030157;28;20048;-68
2024/01/15 08:28:48;;;;;;;12.00;1.58;;;1.00;99.90;;;;;;5038104;28;20044;-73
2024/01/15 08:31:13;;;;;;;8.90;1.80;;;1.00;99.90;;;;;;5044086;28;20052;-71
2024/01/15 08:33:39;;;;;;;11.40;2.42;;;0.90;99.90;;;;;;5030235;28;20055;-76
2024/01/15 08:36:05;;;;;;;9.38;1.77;;;0.90;99.90;;;;;;5037669;28;20033;-73
2024/01/15 08:38:31;;;;;;;8.10;1.75;;;0.80;99.90;;;;;;5027826;28;20048;-71
2024/01/15 08:40:58;;;;;;;14.05;2.15;;;0.80;99.90;;;;;;5028230;28;20123;-72
2024/01/15 08:43:24;;;;;;;11.77;1.95;;;0.80;99.90;;;;;;5030552;28;20148;-74
2024/01/15 08:45:51;;;;;;;11.02;1.65;;;0.80;99.90;;;;;;5033142;28;20041;-72
2024/01/15 08:48:17;;;;;;;7.25;1.35;;;0.70;99.90;;;;;;5028443;28;20052;-74
2024/01/15 08:50:42;;;;;;;9.00;1.55;;;0.80;99.90;;;;;;5027942;28;20056;-74
2024/01/15 08:53:11;;;;;;;10.38;2.05;;;0.90;99.90;;;;;;5041536;28;20037;-73
2024/01/15 08:55:36;;;;;;;4.97;1.30;;;0.90;99.90;;;;;;5032439;28;20060;-76
2024/01/15 08:58:03;;;;;;;10.10;2.25;;;0.90;99.90;;;;;;5034951;28;20397;-74
2024/01/15 09:00:28;;;;;;;9.40;1.73;;;0.90;99.90;;;;;;5031522;28;20116;-73
2024/01/15 09:02:54;;;;;;;10.05;1.67;;;1.00;99.90;;;;;;5033047;28;20123;-73
2024/01/15 09:05:20;;;;;;;5.82;1.38;;;1.10;99.90;;;;;;5011385;28;20045;-71
2024/01/15 09:07:46;;;;;;;12.48;1.52;;;1.20;99.90;;;;;;4997864;28;20041;-70
2024/01/15 09:10:11;;;;;;;11.45;1.75;;;1.20;99.90;;;;;;5011730;28;20129;-71
2024/01/15 09:12:38;;;;;;;10.18;1.83;;;1.30;99.90;;;;;;5016818;28;20049;-74
2024/01/15 09:15:05;;;;;;;7.80;1.67;;;1.40;99.90;;;;;;5044333;28;20045;-71
2024/01/15 09:17:32;;;;;;;12.63;1.85;;;1.40;99.90;;;;;;5029864;28;20144;-71
2024/01/15 09:19:57;;;;;;;12.57;2.28;;;1.50;99.90;;;;;;5015016;28;20037;-69
2024/01/15 09:22:23;;;;;;;13.25;2.08;;;1.40;99.90;;;;;;5028220;28;20037;-72
2024/01/15 09:24:48;;;;;;;5.75;1.42;;;1.50;99.90;;;;;;5012603;28;20334;-72
2024/01/15 09:27:14;;;;;;;13.80;1.60;;;1.50;62.30;;;;;;5015763;28;20045;-68
2024/01/15 09:29:42;;;;;;;9.38;2.00;;;1.60;99.30;;;;;;5029290;28;20041;-69
2024/01/15 09:32:08;;;;;;;6.75;1.73;;;1.50;44.10;;;;;;5028330;28;20094;-67
2024/01/15 09:34:34;;;;;;;7.35;1.35;;;1.50;66.20;;;;;;5028484;28;20049;-68
2024/01/15 09:37:00;;;;;;;7.07;1.45;;;1.50;94.90;;;;;;5044617;28;20040;-69
2024/01/15 09:39:27;;;;;;;5.35;1.10;;;1.50;80.90;;;;;;5032177;28;20045;-67
2024/01/15 09:41:53;;;;;;;5.10;0.85;;;1.50;99.90;;;;;;5045832;28;20045;-69
2024/01/15 09:44:19;;;;;;;7.22;1.27;;;1.50;99.20;;;;;;5030709;28;20041;-69
2024/01/15 09:46:49;;;;;;;6.80;1.15;;;1.40;71.10;;;;;;5041766;28;20047;-67
2024/01/15 09:49:15;;;;;;;3.70;1.10;;;1.50;90.10;;;;;;5036909;28;20039;-73
2024/01/15 09:51:41;;;;;;;3.92;1.30;;;1.50;84.50;;;;;;5032323;28;20037;-70
2024/01/15 09:54:08;;;;;;;4.63;1.10;;;1.60;26.00;;;;;;5028898;28;20056;-70
2024/01/15 09:56:34;;;;;;;5.45;1.40;;;1.60;1.00;;;;;;5038379;28;20037;-69
2024/01/15 09:59:00;;;;;;;6.05;1.30;;;1.60;4.40;;;;;;5029977;28;20065;-70
2024/01/15 10:01:26;;;;;;;9.18;1.40;;;1.80;10.40;;;;;;5031460;28;20049;-72
2024/01/15 10:03:53;;;;;;;8.57;1.48;;;1.90;1.00;;;;;;5033224;28;20045;-70
2024/01/15 10:06:21;;;;;;;5.22;1.33;;;2.00;8.80;;;;;;5031986;28;20060;-70
2024/01/15 10:08:51;;;;;;;6.80;1.33;;;1.70;1.00;;;;;;5032304;28;20037;-69
2024/01/15 10:11:16;;;;;;;13.77;1.75;;;1.30;1.00;;;;;;5036970;28;20049;-69
2024/01/15 10:13:53;;;;;;;7.70;1.80;;;1.20;1.00;;;;;;5042094;28;20044;-70
2024/01/15 10:16:19;;;;;;;7.15;1.58;;;1.10;1.00;;;;;;5036704;28;20117;-70
2024/01/15 10:18:45;;;;;;;12.18;1.90;;;1.00;1.00;;;;;;5015468;28;20503;-71
2024/01/15 10:21:10;;;;;;;10.52;1.67;;;1.10;33.60;;;;;;5047220;28;20151;-69
2024/01/15 10:23:36;;;;;;;10.45;1.60;;;1.10;52.70;;;;;;5032367;28;20045;-69
2024/01/15 10:26:03;;;;;;;8.80;1.70;;;1.20;83.20;;;;;;5033965;28;20087;-69
2024/01/15 10:28:30;;;;;;;10.75;2.72;;;1.20;99.90;;;;;;5035874;28;20033;-70
2024/01/15 10:31:00;;;;;;;13.43;2.00;;;1.20;95.60;;;;;;5031588;28;20061;-69
2024/01/15 10:33:26;;;;;;;7.53;2.08;;;1.30;99.90;;;;;;5037731;28;20056;-69
2024/01/15 10:35:56;;;;;;;9.43;1.77;;;1.30;99.90;;;;;;5035226;28;20052;-70
2024/01/15 10:38:22;;;;;;;12.68;2.05;;;1.40;99.90;;;;;;5039063;28;20037;-70
2024/01/15 10:40:52;;;;;;;7.80;1.60;;;1.40;99.90;;;;;;5020278;28;20371;-70
2024/01/15 10:43:17;;;;;;;7.30;1.70;;;1.60;99.90;;;;;;5037110;28;20041;-71
2024/01/15 10:45:47;;;;;;;16.17;1.95;;;1.70;99.90;;;;;;5030645;28;20038;-70
2024/01/15 10:48:14;;;;;;;10.73;1.55;;;1.80;42.30;;;;;;5038766;28;20075;-70
2024/01/15 10:50:40;;;;;;;11.15;1.52;;;1.90;96.50;;;;;;5041195;28;20079;-72
2024/01/15 10:53:07;;;;;;;8.07;1.60;;;2.00;78.50;;;;;;5030512;28;20045;-70
2024/01/15 10:55:34;;;;;;;7.45;3.33;;;2.10;94.40;;;;;;5031659;28;20042;-70
2024/01/15 10:58:01;;;;;;;13.55;2.45;;;2.10;39.20;;;;;;5033468;28;20041;-69
2024/01/15 11:00:27;;;;;;;7.57;1.48;;;2.00;1.00;;;;;;5040406;28;20098;-69
2024/01/15 11:02:56;;;;;;;6.63;1.42;;;1.90;1.00;;;;;;5028450;28;20045;-67
2024/01/15 11:05:22;;;;;;;6.65;1.33;;;1.80;1.00;;;;;;5031439;28;20053;-69
2024/01/15 11:07:55;;;;;;;6.88;1.30;;;1.80;1.00;;;;;;5040395;28;20037;-71
2024/01/15 11:10:46;;;;;;;10.10;1.30;;;1.90;71.60;;;;;;5043058;28;20047;-70
2024/01/15 11:13:34;;;;;;;5.68;1.08;;;2.00;99.20;;;;;;5030217;28;20033;-68
2024/01/15 11:16:04;;;;;;;7.13;1.23;;;2.10;99.90;;;;;;5032578;28;20521;-68
2024/01/15 11:18:34;;;;;;;3.90;1.55;;;2.30;99.90;;;;;;5043269;28;20508;-69
2024/01/15 11:21:18;;;;;;;3.58;1.10;;;2.20;99.90;;;;;;5016939;28;20115;-71
2024/01/15 11:23:49;;;;;;;6.15;1.08;;;2.00;74.10;;;;;;5042494;28;20076;-70
2024/01/15 11:26:37;;;;;;;5.07;0.80;;;2.00;99.90;;;;;;5039940;28;20036;-70
2024/01/15 11:29:05;;;;;;;5.45;0.60;;;1.90;99.90;;;;;;5035384;28;20045;-70
2024/01/15 11:31:40;;;;;;;2.67;0.70;;;1.90;99.90;;;;;;5058204;28;20053;-70
2024/01/15 11:34:10;;;;;;;8.40;0.93;;;2.00;99.90;;;;;;5032025;28;20128;-69
2024/01/15 11:36:48;;;;;;;3.03;1.10;;;2.20;99.90;;;;;;5033858;28;20443;-69
2024/01/15 11:39:43;;;;;;;5.47;0.90;;;2.20;99.90;;;;;;5029467;28;20774;-71
2024/01/15 11:42:11;;;;;;;1.58;0.68;;;2.10;99.90;;;;;;5033593;28;20063;-69
2024/01/15 11:44:38;;;;;;;5.15;0.88;;;2.00;99.90;;;;;;5036605;28;20072;-69
2024/01/15 11:47:05;;;;;;;3.72;0.90;;;1.90;99.90;;;;;;5017349;28;20478;-69
2024/01/15 11:49:39;;;;;;;2.50;0.57;;;1.90;99.90;;;;;;5033255;28;20048;-70
2024/01/15 11:52:06;;;;;;;4.05;0.52;;;1.80;99.90;;;;;;5039541;28;20080;-69
2024/01/15 11:54:36;;;;;;;1.15;0.43;;;1.90;99.90;;;;;;5044812;28;20029;-68
2024/01/15 11:57:09;;;;;;;6.00;0.60;;;1.80;99.90;;;;;;5033977;28;20141;-69
2024/01/15 11:59:35;;;;;;;10.65;0.90;;;1.90;99.90;;;;;;5044372;28;20369;-68
2024/01/15 12:02:01;;;;;;;0.70;0.30;;;1.90;99.90;;;;;;5039847;28;20033;-68
2024/01/15 12:04:27;;;;;;;1.27;0.75;;;1.90;99.90;;;;;;5041549;28;20045;-67
2024/01/15 12:06:53;;;;;;;3.63;0.65;;;1.90;99.90;;;;;;5031208;28;20189;-69
2024/01/15 12:09:21;;;;;;;2.60;0.43;;;1.90;99.90;;;;;;5038607;28;20497;-69
2024/01/15 12:11:54;;;;;;;1.15;0.40;;;1.90;99.90;;;;;;5029935;28;20369;-69
2024/01/15 12:14:21;;;;;;;2.55;0.50;;;1.90;99.90;;;;;;5028578;28;20037;-69
2024/01/15 12:16:47;;;;;;;2.90;0.60;;;1.90;99.90;;;;;;5039847;28;20593;-68
2024/01/15 12:19:15;;;;;;;8.00;1.95;;;1.90;99.90;;;;;;5036730;28;20117;-70
2024/01/15 12:21:40;;;;;;;1.77;0.47;;;1.90;99.90;;;;;;5040143;28;20102;-70
2024/01/15 12:24:07;;;;;;;3.22;0.43;;;1.80;99.90;;;;;;5048282;28;20087;-70
2024/01/15 12:26:34;;;;;;;1.60;0.40;;;1.60;99.90;;;;;;5049312;28;20055;-70
2024/01/15 12:29:02;;;;;;;0.40;0.30;;;1.50;99.90;;;;;;5028866;28;20448;-68
2024/01/15 12:31:29;;;;;;;2.10;0.40;;;1.50;99.90;;;;;;5038626;28;20438;-71
2024/01/15 12:33:56;;;;;;;1.27;0.40;;;1.50;99.90;;;;;;5035623;28;20089;-70
2024/01/15 12:36:21;;;;;;;2.22;0.30;;;1.50;99.90;;;;;;5046183;28;20033;-70
2024/01/15 12:38:47;;;;;;;1.27;0.52;;;1.50;99.90;;;;;;5033174;28;20508;-68
2024/01/15 12:41:13;;;;;;;3.65;0.70;;;1.60;99.90;;;;;;5029264;28;20068;-72
2024/01/15 12:43:40;;;;;;;1.63;0.47;;;1.70;99.90;;;;;;5022418;28;20071;-71
2024/01/15 12:46:06;;;;;;;1.45;0.47;;;1.80;99.90;;;;;;5032964;28;20139;-71
2024/01/15 12:48:31;;;;;;;0.75;0.40;;;1.80;99.90;;;;;;5041273;28;20123;-71
2024/01/15 12:50:57;;;;;;;1.10;0.50;;;1.80;99.90;;;;;;5030160;28;20041;-71